Time;durP1;ratioP1;P1;durP2;ratioP2;P2;SDS_P1;SDS_P2;PMS_P1;PMS_P2;Temp;Humidity;BMP_temperature;BMP_pressure;BME280_temperature;BME280_humidity;BME280_pressure;Samples;Min_cycle;Max_cycle;Signal;HPM_P1;HPM_P2
2022/08/24 00:00:08;;;;;;;3.55;2.70;;;;;;;;;;5108963;28;20203;-43
2022/08/24 00:02:36;;;;;;;3.33;2.70;;;;;;;;;;5096102;28;20211;-40
2022/08/24 00:05:03;;;;;;;5.50;3.20;;;;;;;;;;5102294;28;20223;-41
2022/08/24 00:07:30;;;;;;;3.23;2.80;;;;;;;;;;5101067;28;20220;-43
2022/08/24 00:09:58;;;;;;;2.90;2.40;;;;;;;;;;5105826;28;20713;-44
2022/08/24 00:12:27;;;;;;;5.83;2.50;;;;;;;;;;5109414;28;20208;-42
2022/08/24 00:14:54;;;;;;;2.90;2.70;;;;;;;;;;5109762;28;20211;-37
2022/08/24 00:17:21;;;;;;;3.90;2.70;;;;;;;;;;5098682;28;20223;-37
2022/08/24 00:19:48;;;;;;;2.93;2.73;;;;;;;;;;5100651;28;20210;-42
2022/08/24 00:22:16;;;;;;;2.57;2.37;;;;;;;;;;5105981;28;20203;-44
2022/08/24 00:24:43;;;;;;;4.40;2.83;;;;;;;;;;5108091;28;20223;-42
2022/08/24 00:27:11;;;;;;;2.40;2.20;;;;;;;;;;5109235;28;20215;-41
2022/08/24 00:29:39;;;;;;;3.30;3.03;;;;;;;;;;5109905;28;20203;-41
2022/08/24 00:32:07;;;;;;;2.70;2.50;;;;;;;;;;5097725;28;20215;-40
2022/08/24 00:34:34;;;;;;;4.40;2.73;;;;;;;;;;5107375;28;20227;-38
2022/08/24 00:37:01;;;;;;;3.30;3.00;;;;;;;;;;5105793;28;20262;-42
2022/08/24 00:39:29;;;;;;;2.90;2.70;;;;;;;;;;5100262;28;20204;-40
2022/08/24 00:41:56;;;;;;;3.70;3.37;;;;;;;;;;5108451;28;20203;-40
2022/08/24 00:44:23;;;;;;;2.90;2.70;;;;;;;;;;5109949;28;20223;-38
2022/08/24 00:46:53;;;;;;;2.73;2.43;;;;;;;;;;5106275;28;20233;-40
2022/08/24 00:49:24;;;;;;;6.53;3.57;;;;;;;;;;5101733;28;20204;-42
2022/08/24 00:51:54;;;;;;;3.90;3.20;;;;;;;;;;5103494;28;20210;-43
2022/08/24 00:54:22;;;;;;;3.30;3.00;;;;;;;;;;5103879;28;20198;-42
2022/08/24 00:56:52;;;;;;;3.07;2.70;;;;;;;;;;5111486;28;20227;-42
2022/08/24 00:59:21;;;;;;;3.03;2.73;;;;;;;;;;5108366;28;20207;-40
2022/08/24 01:01:49;;;;;;;4.90;3.23;;;;;;;;;;5098327;28;20297;-43
2022/08/24 01:04:20;;;;;;;3.27;2.83;;;;;;;;;;5100837;28;20222;-39
2022/08/24 01:06:48;;;;;;;4.60;3.33;;;;;;;;;;5103904;28;20233;-42
2022/08/24 01:09:15;;;;;;;3.20;2.67;;;;;;;;;;5103093;28;20230;-41
2022/08/24 01:11:43;;;;;;;4.03;2.57;;;;;;;;;;5106836;28;20194;-44
2022/08/24 01:14:10;;;;;;;3.83;3.07;;;;;;;;;;5107666;28;20214;-42
2022/08/24 01:19:27;;;;;;;3.10;2.90;;;;;;;;;;5098600;28;20198;-43
2022/08/24 01:22:04;;;;;;;5.40;2.80;;;;;;;;;;5103950;28;20194;-45
2022/08/24 01:24:35;;;;;;;2.90;2.70;;;;;;;;;;5103481;28;20223;-38
2022/08/24 01:27:03;;;;;;;3.20;2.90;;;;;;;;;;5107460;28;20250;-43
2022/08/24 01:29:31;;;;;;;4.37;3.17;;;;;;;;;;5106873;28;20218;-40
2022/08/24 01:31:58;;;;;;;3.90;2.67;;;;;;;;;;5100992;28;20462;-37
2022/08/24 01:34:26;;;;;;;3.27;2.97;;;;;;;;;;5104254;27;20222;-45
2022/08/24 01:36:54;;;;;;;2.77;2.57;;;;;;;;;;5107120;28;20299;-43
2022/08/24 01:39:24;;;;;;;3.23;2.93;;;;;;;;;;5098886;28;20203;-41
2022/08/24 01:41:53;;;;;;;3.00;2.77;;;;;;;;;;5107318;28;20214;-42
2022/08/24 01:44:21;;;;;;;2.73;2.57;;;;;;;;;;5107508;28;20230;-42
2022/08/24 01:46:50;;;;;;;3.47;2.60;;;;;;;;;;5092970;28;20223;-40
2022/08/24 01:49:18;;;;;;;3.20;2.90;;;;;;;;;;5098214;28;20233;-42
2022/08/24 01:51:45;;;;;;;3.40;2.50;;;;;;;;;;5102736;28;20211;-40
2022/08/24 01:54:12;;;;;;;3.10;2.90;;;;;;;;;;5094067;28;20203;-44
2022/08/24 01:56:40;;;;;;;4.60;2.70;;;;;;;;;;5102106;28;20199;-40
2022/08/24 01:59:08;;;;;;;3.50;2.67;;;;;;;;;;5086807;28;20217;-40
2022/08/24 02:01:40;;;;;;;4.27;2.47;;;;;;;;;;5091274;28;20208;-41
2022/08/24 02:04:08;;;;;;;4.43;3.13;;;;;;;;;;5104236;28;20274;-41
2022/08/24 02:06:36;;;;;;;4.70;3.63;;;;;;;;;;5108215;28;20213;-37
2022/08/24 02:09:03;;;;;;;2.97;2.77;;;;;;;;;;5100569;28;20207;-39
2022/08/24 02:11:30;;;;;;;3.47;2.80;;;;;;;;;;5109420;27;20202;-40
2022/08/24 02:13:57;;;;;;;5.20;3.33;;;;;;;;;;5107121;28;20207;-39
2022/08/24 02:16:26;;;;;;;3.77;3.17;;;;;;;;;;5098089;28;20207;-38
2022/08/24 02:18:53;;;;;;;3.80;3.00;;;;;;;;;;5106614;28;20210;-42
2022/08/24 02:21:21;;;;;;;6.23;3.07;;;;;;;;;;5098065;28;20323;-44
2022/08/24 02:23:48;;;;;;;8.60;3.37;;;;;;;;;;5098392;28;20207;-45
2022/08/24 02:26:16;;;;;;;3.37;2.80;;;;;;;;;;5106118;28;20214;-44
2022/08/24 02:28:43;;;;;;;4.27;2.93;;;;;;;;;;5102206;28;20229;-40
2022/08/24 02:31:11;;;;;;;2.80;2.60;;;;;;;;;;5098831;28;20237;-42
2022/08/24 02:33:39;;;;;;;10.50;3.00;;;;;;;;;;5099358;28;20641;-40
2022/08/24 02:36:07;;;;;;;4.57;3.07;;;;;;;;;;5105830;28;20214;-44
2022/08/24 02:38:34;;;;;;;2.90;2.70;;;;;;;;;;5097562;28;20227;-42
2022/08/24 02:41:02;;;;;;;3.47;3.00;;;;;;;;;;5105913;28;20436;-43
2022/08/24 02:43:29;;;;;;;2.67;2.47;;;;;;;;;;5104845;28;20309;-37
2022/08/24 02:45:56;;;;;;;5.90;2.90;;;;;;;;;;5100815;28;20224;-43
2022/08/24 02:48:24;;;;;;;3.40;3.03;;;;;;;;;;5100851;28;20222;-44
2022/08/24 02:50:53;;;;;;;3.10;2.80;;;;;;;;;;5105976;28;20212;-42
2022/08/24 02:53:21;;;;;;;3.63;3.30;;;;;;;;;;5094561;28;20209;-42
2022/08/24 02:55:48;;;;;;;2.80;2.60;;;;;;;;;;5105878;28;20198;-37
2022/08/24 02:58:16;;;;;;;3.30;2.77;;;;;;;;;;5106290;28;20214;-44
2022/08/24 03:00:45;;;;;;;3.20;2.90;;;;;;;;;;5101197;28;20195;-42
2022/08/24 03:03:12;;;;;;;3.77;3.00;;;;;;;;;;5094316;28;20221;-39
2022/08/24 03:05:39;;;;;;;2.90;2.60;;;;;;;;;;5105693;28;20227;-42
2022/08/24 03:08:08;;;;;;;3.20;2.90;;;;;;;;;;5099159;28;20310;-42
2022/08/24 03:10:35;;;;;;;2.83;2.60;;;;;;;;;;5105530;28;20203;-43
2022/08/24 03:13:02;;;;;;;2.80;2.57;;;;;;;;;;5106303;28;20206;-41
2022/08/24 03:15:30;;;;;;;3.20;2.67;;;;;;;;;;5104784;28;20210;-40
2022/08/24 03:17:57;;;;;;;2.97;2.60;;;;;;;;;;5096312;28;20256;-41
2022/08/24 03:20:25;;;;;;;3.00;2.70;;;;;;;;;;5106329;28;20199;-41
2022/08/24 03:22:53;;;;;;;3.37;2.50;;;;;;;;;;5101696;28;20564;-42
2022/08/24 03:25:23;;;;;;;3.17;2.87;;;;;;;;;;5107514;28;20218;-42
2022/08/24 03:27:51;;;;;;;3.70;2.80;;;;;;;;;;5110340;28;20222;-37
2022/08/24 03:30:18;;;;;;;3.70;2.73;;;;;;;;;;5109387;28;20207;-44
2022/08/24 03:32:46;;;;;;;2.90;2.53;;;;;;;;;;5100239;28;20213;-41
2022/08/24 03:35:13;;;;;;;3.07;2.80;;;;;;;;;;5109249;28;20205;-40
2022/08/24 03:37:41;;;;;;;2.87;2.63;;;;;;;;;;5105727;27;20228;-42
2022/08/24 03:40:09;;;;;;;2.93;2.63;;;;;;;;;;5107126;28;20209;-42
2022/08/24 03:42:38;;;;;;;2.73;2.53;;;;;;;;;;5109514;28;20260;-44
2022/08/24 03:45:06;;;;;;;3.10;2.80;;;;;;;;;;5108314;28;20230;-36
2022/08/24 03:47:33;;;;;;;3.13;2.90;;;;;;;;;;5095584;28;20221;-44
2022/08/24 03:50:00;;;;;;;2.80;2.60;;;;;;;;;;5110458;28;20224;-41
2022/08/24 03:52:27;;;;;;;3.03;2.60;;;;;;;;;;5111867;28;20548;-41
2022/08/24 03:54:54;;;;;;;2.80;2.40;;;;;;;;;;5108724;27;20205;-36
2022/08/24 03:57:21;;;;;;;3.00;2.80;;;;;;;;;;5109983;28;20220;-43
2022/08/24 03:59:50;;;;;;;2.47;2.37;;;;;;;;;;5106909;28;20217;-41
2022/08/24 04:02:17;;;;;;;2.90;2.70;;;;;;;;;;5104390;28;20216;-41
2022/08/24 04:04:44;;;;;;;5.37;2.77;;;;;;;;;;5109193;28;20217;-42
2022/08/24 04:07:12;;;;;;;3.00;2.70;;;;;;;;;;5104173;28;20331;-40
2022/08/24 04:09:39;;;;;;;3.10;2.80;;;;;;;;;;5106968;28;20221;-42
2022/08/24 04:12:06;;;;;;;3.10;2.63;;;;;;;;;;5108471;27;20212;-41
2022/08/24 04:14:34;;;;;;;3.13;2.90;;;;;;;;;;5109523;28;20206;-39
2022/08/24 04:17:03;;;;;;;2.93;2.43;;;;;;;;;;5106271;28;20222;-40
2022/08/24 04:19:30;;;;;;;3.07;2.80;;;;;;;;;;5105407;28;20251;-37
2022/08/24 04:21:57;;;;;;;3.03;2.83;;;;;;;;;;5105574;28;20195;-42
2022/08/24 04:24:25;;;;;;;3.07;2.60;;;;;;;;;;5099868;28;20205;-43
2022/08/24 04:26:52;;;;;;;2.33;2.17;;;;;;;;;;5108248;28;20227;-44
2022/08/24 04:29:20;;;;;;;2.80;2.40;;;;;;;;;;5089704;28;20207;-41
2022/08/24 04:31:47;;;;;;;2.70;2.43;;;;;;;;;;5097492;28;20583;-38
2022/08/24 04:34:17;;;;;;;2.63;2.43;;;;;;;;;;5104478;28;21289;-38
2022/08/24 04:36:45;;;;;;;6.20;3.00;;;;;;;;;;5112316;28;20204;-35
2022/08/24 04:39:12;;;;;;;3.37;3.00;;;;;;;;;;5106686;28;20221;-42
2022/08/24 04:41:41;;;;;;;2.77;2.60;;;;;;;;;;5111800;28;20208;-38
2022/08/24 04:44:08;;;;;;;2.90;2.63;;;;;;;;;;5112699;28;20215;-43
2022/08/24 04:46:35;;;;;;;3.70;2.60;;;;;;;;;;5102479;28;20222;-39
2022/08/24 04:49:03;;;;;;;2.60;2.40;;;;;;;;;;5103687;28;20205;-44
2022/08/24 04:51:31;;;;;;;3.70;2.73;;;;;;;;;;5113645;28;20211;-41
2022/08/24 04:53:59;;;;;;;2.97;2.77;;;;;;;;;;5109773;28;20209;-43
2022/08/24 04:56:26;;;;;;;2.70;2.50;;;;;;;;;;5114310;28;20196;-43
2022/08/24 04:58:54;;;;;;;2.70;2.50;;;;;;;;;;5107420;28;20206;-38
2022/08/24 05:01:23;;;;;;;2.90;2.70;;;;;;;;;;5104231;28;20206;-43
2022/08/24 05:03:52;;;;;;;3.03;2.83;;;;;;;;;;5112240;28;20210;-38
2022/08/24 05:06:33;;;;;;;3.00;2.77;;;;;;;;;;5112725;28;20230;-41
2022/08/24 05:09:00;;;;;;;3.37;2.90;;;;;;;;;;5108603;28;20233;-35
2022/08/24 05:11:28;;;;;;;4.17;3.17;;;;;;;;;;5111243;28;20210;-43
2022/08/24 05:13:55;;;;;;;4.67;2.90;;;;;;;;;;5096431;28;20212;-44
2022/08/24 05:16:23;;;;;;;3.83;2.77;;;;;;;;;;5106477;28;20197;-39
2022/08/24 05:18:50;;;;;;;3.33;2.63;;;;;;;;;;5111753;28;20236;-40
2022/08/24 05:21:18;;;;;;;3.00;2.70;;;;;;;;;;5112343;28;20213;-40
2022/08/24 05:23:47;;;;;;;2.70;1.83;;;;;;;;;;5106767;28;20231;-37
2022/08/24 05:26:15;;;;;;;2.67;2.47;;;;;;;;;;5109391;28;20228;-42
2022/08/24 05:28:42;;;;;;;2.97;2.50;;;;;;;;;;5112019;28;20234;-43
2022/08/24 05:31:10;;;;;;;3.40;2.67;;;;;;;;;;5102146;28;20213;-42
2022/08/24 05:33:38;;;;;;;3.30;3.00;;;;;;;;;;5105737;28;20228;-41
2022/08/24 05:36:05;;;;;;;3.60;3.03;;;;;;;;;;5111229;27;20203;-38
2022/08/24 05:38:42;;;;;;;3.77;2.73;;;;;;;;;;5101725;28;20221;-39
2022/08/24 05:41:10;;;;;;;2.83;2.63;;;;;;;;;;5103093;28;20201;-40
2022/08/24 05:43:38;;;;;;;2.87;2.67;;;;;;;;;;5111245;28;20206;-45
2022/08/24 05:46:05;;;;;;;2.90;2.70;;;;;;;;;;5110646;28;20218;-40
2022/08/24 05:48:33;;;;;;;3.17;2.87;;;;;;;;;;5100508;28;20217;-42
2022/08/24 05:51:00;;;;;;;3.10;2.77;;;;;;;;;;5095788;28;20218;-41
2022/08/24 05:53:27;;;;;;;3.20;3.00;;;;;;;;;;5106514;28;20198;-38
2022/08/24 05:55:54;;;;;;;3.90;2.73;;;;;;;;;;5109016;28;20466;-42
2022/08/24 05:58:23;;;;;;;3.47;2.73;;;;;;;;;;5109888;28;20237;-43
2022/08/24 06:00:50;;;;;;;4.90;3.03;;;;;;;;;;5093885;28;20205;-38
2022/08/24 06:03:17;;;;;;;6.87;3.03;;;;;;;;;;5110588;28;20214;-37
2022/08/24 06:05:47;;;;;;;3.17;2.97;;;;;;;;;;5110760;28;20229;-42
2022/08/24 06:08:15;;;;;;;4.47;3.40;;;;;;;;;;5102663;28;20233;-41
2022/08/24 06:10:43;;;;;;;3.00;2.80;;;;;;;;;;5110669;28;20201;-44
2022/08/24 06:13:10;;;;;;;5.13;2.90;;;;;;;;;;5110743;28;20206;-39
2022/08/24 06:15:39;;;;;;;3.87;3.27;;;;;;;;;;5110602;28;20206;-41
2022/08/24 06:18:07;;;;;;;3.17;2.90;;;;;;;;;;5102321;28;20229;-42
2022/08/24 06:20:38;;;;;;;3.67;3.17;;;;;;;;;;5105564;28;20204;-41
2022/08/24 06:23:05;;;;;;;3.23;2.93;;;;;;;;;;5093126;28;20236;-40
2022/08/24 06:28:18;;;;;;;5.53;3.20;;;;;;;;;;5110253;28;20224;-36
2022/08/24 06:30:46;;;;;;;3.47;3.03;;;;;;;;;;5111134;28;20236;-42
2022/08/24 06:33:13;;;;;;;5.60;3.73;;;;;;;;;;5103644;28;20204;-40
2022/08/24 06:35:41;;;;;;;3.50;3.20;;;;;;;;;;5105581;27;20201;-42
2022/08/24 06:38:08;;;;;;;4.47;3.43;;;;;;;;;;5098461;28;20222;-43
2022/08/24 06:40:35;;;;;;;4.53;3.83;;;;;;;;;;5110974;28;20271;-41
2022/08/24 06:43:03;;;;;;;3.47;3.07;;;;;;;;;;5110152;28;20228;-43
2022/08/24 06:45:31;;;;;;;3.53;3.23;;;;;;;;;;5100675;28;20202;-40
2022/08/24 06:48:00;;;;;;;3.50;2.97;;;;;;;;;;5091872;28;20312;-40
2022/08/24 06:50:27;;;;;;;3.53;3.23;;;;;;;;;;5106089;28;20195;-41
2022/08/24 06:52:54;;;;;;;4.53;3.67;;;;;;;;;;5096626;28;20446;-43
2022/08/24 06:55:21;;;;;;;4.20;3.50;;;;;;;;;;5109196;28;20221;-37
2022/08/24 06:57:48;;;;;;;3.90;3.30;;;;;;;;;;5109239;28;20224;-40
2022/08/24 07:00:16;;;;;;;3.63;3.33;;;;;;;;;;5104660;28;20206;-42
2022/08/24 07:02:43;;;;;;;4.00;3.70;;;;;;;;;;5099348;28;20210;-39
2022/08/24 07:05:11;;;;;;;4.00;3.40;;;;;;;;;;5108399;28;20225;-43
2022/08/24 07:07:38;;;;;;;3.30;3.10;;;;;;;;;;5104361;28;20230;-43
2022/08/24 07:10:07;;;;;;;4.20;3.20;;;;;;;;;;5108705;28;20305;-43
2022/08/24 07:12:35;;;;;;;3.42;3.13;;;;;;;;;;5109293;28;20199;-41
2022/08/24 07:15:02;;;;;;;3.73;3.03;;;;;;;;;;5109023;28;20249;-40
2022/08/24 07:17:29;;;;;;;4.78;2.95;;;;;;;;;;5104734;28;20272;-43
2022/08/24 07:19:56;;;;;;;3.10;2.85;;;;;;;;;;5105546;28;20204;-39
2022/08/24 07:22:25;;;;;;;3.85;3.55;;;;;;;;;;5100074;28;20210;-42
2022/08/24 07:24:52;;;;;;;3.85;3.20;;;;;;;;;;5099776;28;20229;-45
2022/08/24 07:27:19;;;;;;;4.70;3.60;;;;;;;;;;5108611;28;20219;-42
2022/08/24 07:29:47;;;;;;;3.38;3.08;;;;;;;;;;5101033;28;20252;-40
2022/08/24 07:32:14;;;;;;;4.15;3.42;;;;;;;;;;5097069;28;20209;-42
2022/08/24 07:34:41;;;;;;;3.42;2.90;;;;;;;;;;5105514;28;20361;-42
2022/08/24 07:37:08;;;;;;;6.03;3.33;;;;;;;;;;5106780;28;20325;-39
2022/08/24 07:39:37;;;;;;;3.55;3.22;;;;;;;;;;5106642;28;20209;-40
2022/08/24 07:42:04;;;;;;;3.63;3.15;;;;;;;;;;5109717;28;20199;-42
2022/08/24 07:44:31;;;;;;;4.32;3.28;;;;;;;;;;5110653;28;20214;-39
2022/08/24 07:46:58;;;;;;;3.40;3.10;;;;;;;;;;5093362;28;20220;-42
2022/08/24 07:49:26;;;;;;;5.60;3.03;;;;;;;;;;5102118;28;20204;-37
2022/08/24 07:51:54;;;;;;;4.45;3.05;;;;;;;;;;5103983;28;20199;-44
2022/08/24 07:54:21;;;;;;;4.30;3.10;;;;;;;;;;5098569;28;20225;-39
2022/08/24 07:56:50;;;;;;;3.35;2.78;;;;;;;;;;5107765;28;20243;-43
2022/08/24 07:59:17;;;;;;;3.83;3.03;;;;;;;;;;5107622;28;20211;-43
2022/08/24 08:01:44;;;;;;;3.15;2.85;;;;;;;;;;5101864;28;20233;-39
2022/08/24 08:04:12;;;;;;;3.60;2.78;;;;;;;;;;5102708;28;20337;-42
2022/08/24 08:06:41;;;;;;;3.10;2.38;;;;;;;;;;5109116;28;20235;-40
2022/08/24 08:09:08;;;;;;;2.53;2.33;;;;;;;;;;5099273;28;20211;-41
2022/08/24 08:11:35;;;;;;;4.15;2.53;;;;;;;;;;5110674;28;20204;-43
2022/08/24 08:14:04;;;;;;;4.78;2.70;;;;;;;;;;5111130;28;20204;-43
2022/08/24 08:16:31;;;;;;;4.38;2.45;;;;;;;;;;5104960;28;20294;-39
2022/08/24 08:18:58;;;;;;;2.50;2.30;;;;;;;;;;5112529;28;20210;-40
2022/08/24 08:24:18;;;;;;;5.78;2.85;;;;;;;;;;5110167;28;20653;-43
2022/08/24 08:26:45;;;;;;;3.85;2.78;;;;;;;;;;5114726;28;20210;-40
2022/08/24 08:29:14;;;;;;;2.53;2.35;;;;;;;;;;5116376;28;20192;-43
2022/08/24 08:31:41;;;;;;;3.85;2.50;;;;;;;;;;5101501;28;20207;-43
2022/08/24 08:34:09;;;;;;;2.90;2.60;;;;;;;;;;5114251;28;20195;-43
2022/08/24 08:36:39;;;;;;;2.35;2.05;;;;;;;;;;5115814;28;20208;-45
2022/08/24 08:39:06;;;;;;;3.95;2.17;;;;;;;;;;5109311;28;20204;-36
2022/08/24 08:41:48;;;;;;;3.97;2.30;;;;;;;;;;5109794;28;20200;-44
2022/08/24 08:44:20;;;;;;;3.63;1.92;;;;;;;;;;5094798;28;20192;-42
2022/08/24 08:46:55;;;;;;;1.70;1.60;;;;;;;;;;5103424;28;20241;-44
2022/08/24 08:49:28;;;;;;;4.45;2.13;;;;;;;;;;5100513;28;20218;-42
2022/08/24 08:52:05;;;;;;;2.15;1.88;;;;;;;;;;5103792;28;20211;-45
2022/08/24 08:54:39;;;;;;;2.28;1.75;;;;;;;;;;5109712;28;20368;-41
2022/08/24 08:57:13;;;;;;;1.70;1.60;;;;;;;;;;5113615;28;20224;-43
2022/08/24 08:59:51;;;;;;;3.22;1.80;;;;;;;;;;5112118;28;20245;-45
2022/08/24 09:02:25;;;;;;;4.88;1.92;;;;;;;;;;5111687;28;20199;-44
2022/08/24 09:05:01;;;;;;;2.00;1.55;;;;;;;;;;5113864;28;20210;-43
2022/08/24 09:07:34;;;;;;;3.83;1.80;;;;;;;;;;5110174;28;20876;-41
2022/08/24 09:10:11;;;;;;;2.33;1.73;;;;;;;;;;5103374;28;20215;-44
2022/08/24 09:12:49;;;;;;;2.45;1.88;;;;;;;;;;5115042;28;20196;-43
2022/08/24 09:15:31;;;;;;;5.43;1.63;;;;;;;;;;5114788;28;20203;-42
2022/08/24 09:18:05;;;;;;;2.42;1.40;;;;;;;;;;5106669;28;20220;-44
2022/08/24 09:20:58;;;;;;;1.60;1.50;;;;;;;;;;5105081;28;20198;-42
2022/08/24 09:23:29;;;;;;;2.65;1.50;;;;;;;;;;5107197;28;20207;-41
2022/08/24 09:26:00;;;;;;;1.50;1.48;;;;;;;;;;5114725;28;20211;-45
2022/08/24 09:28:36;;;;;;;2.38;1.50;;;;;;;;;;5114752;28;20324;-43
2022/08/24 09:31:20;;;;;;;2.40;2.20;;;;;;;;;;5114623;28;20191;-42
2022/08/24 09:33:56;;;;;;;1.70;1.60;;;;;;;;;;5110246;28;20211;-41
2022/08/24 09:36:34;;;;;;;1.75;1.65;;;;;;;;;;5102656;28;20198;-42
2022/08/24 09:39:06;;;;;;;1.67;1.58;;;;;;;;;;5101964;28;20260;-42
2022/08/24 09:41:55;;;;;;;3.85;1.92;;;;;;;;;;5106741;28;20552;-40
2022/08/24 09:44:44;;;;;;;2.40;2.17;;;;;;;;;;5082363;27;20204;-42
2022/08/24 09:47:34;;;;;;;2.05;1.85;;;;;;;;;;5102628;28;20224;-42
2022/08/24 09:50:22;;;;;;;2.05;1.60;;;;;;;;;;5106625;28;20218;-39
2022/08/24 09:53:02;;;;;;;1.33;1.27;;;;;;;;;;5098139;28;20210;-42
2022/08/24 09:55:39;;;;;;;1.67;1.40;;;;;;;;;;5103919;28;20221;-39
2022/08/24 09:58:14;;;;;;;1.60;1.50;;;;;;;;;;5110198;28;20697;-39
2022/08/24 10:00:46;;;;;;;3.08;1.90;;;;;;;;;;5110869;28;20191;-43
2022/08/24 10:03:21;;;;;;;2.13;1.60;;;;;;;;;;5100144;28;20286;-43
2022/08/24 10:05:57;;;;;;;1.50;1.40;;;;;;;;;;5105372;28;20487;-39
2022/08/24 10:08:32;;;;;;;3.38;1.50;;;;;;;;;;5103096;28;20252;-41
2022/08/24 10:11:04;;;;;;;1.75;1.40;;;;;;;;;;5108424;28;20203;-40
2022/08/24 10:13:37;;;;;;;1.42;1.33;;;;;;;;;;5110324;28;20202;-41
2022/08/24 10:16:12;;;;;;;1.67;1.40;;;;;;;;;;5111018;28;20202;-42
2022/08/24 10:18:44;;;;;;;1.80;1.70;;;;;;;;;;5103867;28;20274;-40
2022/08/24 10:21:21;;;;;;;1.83;1.45;;;;;;;;;;5109497;28;20195;-42
2022/08/24 10:23:58;;;;;;;2.40;1.50;;;;;;;;;;5102609;28;20219;-43
2022/08/24 10:26:29;;;;;;;1.50;1.40;;;;;;;;;;5101584;28;20211;-44
2022/08/24 10:29:10;;;;;;;1.55;1.27;;;;;;;;;;5109670;28;20194;-41
2022/08/24 10:31:46;;;;;;;1.40;1.30;;;;;;;;;;5097327;28;20251;-38
2022/08/24 10:34:20;;;;;;;1.95;1.20;;;;;;;;;;5109273;28;20209;-41
2022/08/24 10:36:59;;;;;;;2.30;2.10;;;;;;;;;;5108945;28;20234;-44
2022/08/24 10:39:52;;;;;;;2.33;2.10;;;;;;;;;;5102096;28;20314;-44
2022/08/24 10:45:30;;;;;;;1.50;1.40;;;;;;;;;;5106811;28;20211;-42
2022/08/24 10:48:05;;;;;;;1.95;1.40;;;;;;;;;;5105551;28;20562;-43
2022/08/24 10:50:38;;;;;;;1.20;1.20;;;;;;;;;;5109824;28;20194;-41
2022/08/24 10:53:13;;;;;;;2.28;1.50;;;;;;;;;;5104428;28;20208;-38
2022/08/24 10:55:42;;;;;;;1.77;1.50;;;;;;;;;;5105376;28;20256;-43
2022/08/24 10:58:28;;;;;;;1.92;1.50;;;;;;;;;;5109090;28;20242;-39
2022/08/24 11:00:55;;;;;;;1.50;1.40;;;;;;;;;;5107085;28;20229;-44
2022/08/24 11:03:25;;;;;;;1.90;1.80;;;;;;;;;;5097199;28;20210;-42
2022/08/24 11:05:54;;;;;;;3.47;1.45;;;;;;;;;;5105225;28;20503;-40
2022/08/24 11:08:22;;;;;;;1.30;1.30;;;;;;;;;;5103462;28;20229;-38
2022/08/24 11:11:05;;;;;;;2.65;1.45;;;;;;;;;;5108313;28;20205;-42
2022/08/24 11:13:33;;;;;;;1.10;1.10;;;;;;;;;;5104375;28;20215;-43
2022/08/24 11:16:01;;;;;;;1.55;1.13;;;;;;;;;;5104029;28;20216;-43
2022/08/24 11:18:45;;;;;;;0.90;0.90;;;;;;;;;;5108829;28;20211;-39
2022/08/24 11:21:20;;;;;;;0.80;0.80;;;;;;;;;;5110406;28;20234;-41
2022/08/24 11:23:47;;;;;;;1.00;1.00;;;;;;;;;;5103638;28;20216;-41
2022/08/24 11:26:21;;;;;;;0.88;0.88;;;;;;;;;;5111301;28;20203;-45
2022/08/24 11:28:52;;;;;;;0.90;0.90;;;;;;;;;;5110367;28;20241;-45
2022/08/24 11:31:21;;;;;;;4.90;1.30;;;;;;;;;;5103078;28;20195;-39
2022/08/24 11:33:49;;;;;;;1.00;1.00;;;;;;;;;;5104610;28;20213;-39
2022/08/24 11:36:18;;;;;;;2.00;1.10;;;;;;;;;;5109805;28;20547;-37
2022/08/24 11:38:45;;;;;;;1.17;1.17;;;;;;;;;;5100014;28;20217;-42
2022/08/24 11:41:15;;;;;;;1.00;1.00;;;;;;;;;;5108996;28;20236;-43
2022/08/24 11:43:54;;;;;;;0.98;0.85;;;;;;;;;;5109869;28;20209;-43
2022/08/24 11:46:27;;;;;;;1.00;1.00;;;;;;;;;;5105794;28;20264;-38
2022/08/24 11:49:00;;;;;;;0.90;0.90;;;;;;;;;;5108453;27;20219;-45
2022/08/24 11:51:30;;;;;;;1.17;1.15;;;;;;;;;;5113649;28;20224;-40
2022/08/24 11:54:02;;;;;;;1.30;1.20;;;;;;;;;;5103404;28;20204;-43
2022/08/24 11:56:32;;;;;;;1.80;1.15;;;;;;;;;;5114032;28;20217;-36
2022/08/24 11:59:05;;;;;;;1.10;1.10;;;;;;;;;;5114163;28;20193;-41
2022/08/24 12:01:35;;;;;;;1.00;1.00;;;;;;;;;;5104146;28;20203;-43
2022/08/24 12:04:07;;;;;;;1.70;1.23;;;;;;;;;;5112717;28;20563;-39
2022/08/24 12:06:40;;;;;;;1.33;1.17;;;;;;;;;;5113528;28;20479;-43
2022/08/24 12:09:13;;;;;;;1.80;1.20;;;;;;;;;;5107394;27;20218;-41
2022/08/24 12:11:43;;;;;;;1.23;1.13;;;;;;;;;;5113084;28;20217;-39
2022/08/24 12:14:17;;;;;;;1.50;1.10;;;;;;;;;;5113418;28;20197;-39
2022/08/24 12:16:48;;;;;;;0.95;0.95;;;;;;;;;;5110727;28;20209;-43
2022/08/24 12:19:18;;;;;;;2.75;1.27;;;;;;;;;;5106676;28;20213;-41
2022/08/24 12:21:47;;;;;;;1.73;1.10;;;;;;;;;;5112350;28;20202;-41
2022/08/24 12:24:15;;;;;;;1.40;1.30;;;;;;;;;;5107835;28;20268;-42
2022/08/24 12:26:44;;;;;;;1.17;1.17;;;;;;;;;;5107519;28;20203;-44
2022/08/24 12:29:15;;;;;;;1.08;1.08;;;;;;;;;;5109781;28;20227;-43
2022/08/24 12:31:44;;;;;;;1.30;1.20;;;;;;;;;;5098220;28;20201;-42
2022/08/24 12:34:15;;;;;;;1.40;1.40;;;;;;;;;;5110441;28;20203;-38
2022/08/24 12:36:47;;;;;;;2.05;1.33;;;;;;;;;;5112052;28;20201;-40
2022/08/24 12:39:16;;;;;;;1.42;1.33;;;;;;;;;;5100732;28;20203;-37
2022/08/24 12:41:49;;;;;;;1.48;1.38;;;;;;;;;;5100097;27;20680;-39
2022/08/24 12:44:18;;;;;;;1.85;1.40;;;;;;;;;;5111782;28;20203;-42
2022/08/24 12:46:52;;;;;;;1.30;1.20;;;;;;;;;;5108074;28;20321;-42
2022/08/24 12:49:23;;;;;;;1.58;1.48;;;;;;;;;;5110422;28;20557;-43
2022/08/24 12:51:58;;;;;;;1.50;1.38;;;;;;;;;;5105150;28;20198;-40
2022/08/24 12:54:38;;;;;;;1.35;1.25;;;;;;;;;;5195332;22;20235;-30
2022/08/24 12:57:21;;;;;;;1.65;1.55;;;;;;;;;;5091124;28;20224;-32
2022/08/24 12:59:50;;;;;;;1.10;1.10;;;;;;;;;;5090751;28;20202;-29
2022/08/24 13:02:28;;;;;;;1.75;1.60;;;;;;;;;;5088986;28;20202;-32
2022/08/24 13:04:57;;;;;;;1.70;1.60;;;;;;;;;;5094203;28;20208;-30
2022/08/24 13:07:29;;;;;;;1.70;1.60;;;;;;;;;;5088889;28;20228;-29
2022/08/24 13:10:06;;;;;;;2.00;1.90;;;;;;;;;;5093318;28;20264;-30
2022/08/24 13:12:51;;;;;;;1.52;1.42;;;;;;;;;;5094639;28;20200;-29
2022/08/24 13:15:26;;;;;;;1.63;1.52;;;;;;;;;;5094835;28;20212;-31
2022/08/24 13:17:55;;;;;;;1.60;1.50;;;;;;;;;;5089216;28;20317;-31
2022/08/24 13:20:23;;;;;;;7.13;1.70;;;;;;;;;;5091940;28;20235;-30
2022/08/24 13:23:03;;;;;;;1.65;1.55;;;;;;;;;;5086972;28;20214;-31
2022/08/24 13:25:57;;;;;;;1.92;1.83;;;;;;;;;;5086833;28;20214;-29
2022/08/24 13:28:31;;;;;;;1.98;1.83;;;;;;;;;;5074032;28;20243;-31
2022/08/24 13:31:13;;;;;;;1.45;1.35;;;;;;;;;;5074240;28;20222;-30
2022/08/24 13:33:43;;;;;;;1.60;1.50;;;;;;;;;;5079873;28;20205;-32
2022/08/24 13:36:29;;;;;;;1.55;1.45;;;;;;;;;;5093341;28;20294;-32
2022/08/24 13:39:06;;;;;;;2.25;1.60;;;;;;;;;;5084248;28;20208;-32
2022/08/24 13:41:48;;;;;;;2.35;1.50;;;;;;;;;;5093498;28;20202;-29
2022/08/24 13:44:21;;;;;;;1.55;1.45;;;;;;;;;;5102629;28;20259;-32
2022/08/24 13:46:51;;;;;;;5.55;1.80;;;;;;;;;;5110138;28;20231;-32
2022/08/24 13:49:24;;;;;;;1.70;1.60;;;;;;;;;;5079698;28;20275;-32
2022/08/24 13:51:54;;;;;;;3.38;1.52;;;;;;;;;;5085877;28;20198;-30
2022/08/24 13:54:24;;;;;;;3.78;1.67;;;;;;;;;;5086925;28;20248;-31
2022/08/24 13:57:05;;;;;;;3.05;1.80;;;;;;;;;;5089159;28;20223;-30
2022/08/24 13:59:42;;;;;;;1.73;1.63;;;;;;;;;;5069910;28;20196;-31
2022/08/24 14:02:24;;;;;;;1.80;1.63;;;;;;;;;;5086995;28;20219;-31
2022/08/24 14:04:55;;;;;;;1.50;1.38;;;;;;;;;;5093343;28;20215;-28
2022/08/24 14:07:24;;;;;;;1.70;1.60;;;;;;;;;;5090076;28;20227;-31
2022/08/24 14:10:03;;;;;;;1.80;1.70;;;;;;;;;;5083422;28;20227;-32
2022/08/24 14:12:52;;;;;;;2.95;1.58;;;;;;;;;;5071596;28;20286;-31
2022/08/24 14:15:23;;;;;;;2.35;1.60;;;;;;;;;;5095354;28;20203;-31
2022/08/24 14:17:54;;;;;;;1.80;1.70;;;;;;;;;;5097316;28;20220;-33
2022/08/24 14:20:48;;;;;;;2.33;1.73;;;;;;;;;;5086003;28;20242;-31
2022/08/24 14:23:24;;;;;;;1.60;1.50;;;;;;;;;;5035444;28;20298;-30
2022/08/24 14:25:52;;;;;;;2.33;2.13;;;;;;;;;;5086269;28;20203;-29
2022/08/24 14:28:24;;;;;;;1.92;1.50;;;;;;;;;;5091628;28;20224;-29
2022/08/24 14:31:13;;;;;;;4.15;1.85;;;;;;;;;;5093853;28;20198;-32
2022/08/24 14:33:44;;;;;;;2.38;2.13;;;;;;;;;;5086137;28;20215;-30
2022/08/24 14:36:19;;;;;;;1.83;1.73;;;;;;;;;;5084938;28;20207;-29
2022/08/24 14:38:58;;;;;;;1.65;1.55;;;;;;;;;;5083766;28;20219;-32
2022/08/24 14:41:34;;;;;;;5.15;2.17;;;;;;;;;;5091034;28;20599;-29
2022/08/24 14:44:05;;;;;;;1.63;1.50;;;;;;;;;;5093878;28;20202;-31
2022/08/24 14:46:36;;;;;;;1.60;1.50;;;;;;;;;;5094900;28;20201;-30
2022/08/24 14:49:08;;;;;;;1.45;1.40;;;;;;;;;;5087687;28;20229;-30
2022/08/24 14:51:45;;;;;;;1.40;1.30;;;;;;;;;;5092390;28;20200;-33
2022/08/24 14:54:17;;;;;;;1.40;1.30;;;;;;;;;;5090987;28;20349;-31
2022/08/24 14:56:50;;;;;;;1.80;1.70;;;;;;;;;;5092380;28;20189;-31
2022/08/24 14:59:22;;;;;;;2.40;1.80;;;;;;;;;;5097478;28;20204;-31
2022/08/24 15:01:50;;;;;;;2.28;1.60;;;;;;;;;;5095303;28;20286;-33
2022/08/24 15:04:24;;;;;;;2.20;2.00;;;;;;;;;;5098245;28;20199;-33
2022/08/24 15:06:54;;;;;;;2.78;1.63;;;;;;;;;;5099687;28;20226;-27
2022/08/24 15:09:25;;;;;;;1.33;1.23;;;;;;;;;;5082437;28;20310;-29
2022/08/24 15:11:54;;;;;;;3.03;1.77;;;;;;;;;;5092712;28;20204;-28
2022/08/24 15:14:23;;;;;;;2.20;1.80;;;;;;;;;;5092144;28;20200;-30